Terminal Aerodrome Forecast
Issued by NWS

Home | Current Version | Previous Version | Text Only | Print | Product List | Glossary On
Versions: 1 2 3 4 5 6 7 8 9 10 11 12 13 14 15 16
727
FTUS43 KEAX 200520
TAFMKC
TAF
KMKC 200520Z 2006/2106 16006KT P6SM SCT035 BKN200
     FM201000 17009KT 6SM -SHRA BR OVC025
     FM201500 18009KT P6SM VCSH OVC015
     FM201900 20010KT P6SM BKN060
     FM210200 27006KT P6SM SCT200=

USA.gov is the U.S. government's official web portal to all federal, state and local government web resources and services.